createdAt,value
2017-07-21T00:00:38.783Z,5.20
2017-07-21T00:03:06.237Z,5.10
2017-07-21T00:05:33.716Z,5.53
2017-07-21T00:08:01.164Z,5.90
2017-07-21T00:10:28.621Z,5.00
2017-07-21T00:12:56.086Z,5.90
2017-07-21T00:15:23.542Z,5.57
2017-07-21T00:17:51.007Z,5.60
2017-07-21T00:20:18.458Z,5.47
2017-07-21T00:22:45.914Z,6.40
2017-07-21T00:25:13.360Z,5.43
2017-07-21T00:27:40.835Z,6.73
2017-07-21T00:30:08.296Z,6.13
2017-07-21T00:32:36.517Z,6.37
2017-07-21T00:35:03.975Z,7.27
2017-07-21T00:37:31.439Z,7.07
2017-07-21T00:39:58.914Z,6.80
2017-07-21T00:42:26.373Z,5.93
2017-07-21T00:44:53.817Z,7.63
2017-07-21T00:47:21.272Z,7.50
2017-07-21T00:49:48.729Z,7.20
2017-07-21T00:52:16.303Z,7.60
2017-07-21T00:54:43.749Z,7.30
2017-07-21T00:57:11.219Z,7.20
2017-07-21T00:59:38.686Z,6.77
2017-07-21T01:02:06.956Z,7.27
2017-07-21T01:04:34.409Z,6.83
2017-07-21T01:07:01.867Z,6.63
2017-07-21T01:09:29.326Z,8.27
2017-07-21T01:11:56.786Z,7.17
2017-07-21T01:14:24.335Z,6.33
2017-07-21T01:16:51.892Z,7.43
2017-07-21T01:19:19.350Z,7.50
2017-07-21T01:21:46.801Z,7.87
2017-07-21T01:24:14.258Z,6.80
2017-07-21T01:26:41.709Z,7.10
2017-07-21T01:29:09.269Z,6.90
2017-07-21T01:31:36.730Z,7.57
2017-07-21T01:34:04.194Z,9.20
2017-07-21T01:36:31.649Z,8.67
2017-07-21T01:38:59.193Z,10.13
2017-07-21T01:41:26.641Z,8.87
2017-07-21T01:43:54.107Z,8.10
2017-07-21T01:46:21.565Z,9.07
2017-07-21T01:48:49.030Z,8.37
2017-07-21T01:51:16.574Z,8.30
2017-07-21T01:53:44.026Z,8.57
2017-07-21T01:56:11.491Z,8.90
2017-07-21T01:58:38.945Z,8.50
2017-07-21T02:01:06.403Z,8.40
2017-07-21T02:03:33.853Z,7.43
2017-07-21T02:06:01.317Z,7.20
2017-07-21T02:08:28.769Z,7.80
2017-07-21T02:10:56.233Z,7.93
2017-07-21T02:13:23.681Z,7.63
2017-07-21T02:15:51.137Z,7.00
2017-07-21T02:18:18.593Z,8.80
2017-07-21T02:20:46.056Z,7.33
2017-07-21T02:23:13.514Z,8.17
2017-07-21T02:25:40.974Z,8.60
2017-07-21T02:28:08.423Z,7.67
2017-07-21T02:30:35.992Z,9.20
2017-07-21T02:33:03.442Z,8.23
2017-07-21T02:35:30.885Z,8.07
2017-07-21T02:37:58.350Z,6.47
2017-07-21T02:40:25.805Z,7.40
2017-07-21T02:42:53.357Z,6.60
2017-07-21T02:45:20.810Z,7.30
2017-07-21T02:47:48.278Z,7.60
2017-07-21T02:50:15.838Z,6.97
2017-07-21T02:52:43.297Z,8.00
2017-07-21T02:55:10.757Z,8.80
2017-07-21T02:57:38.217Z,10.40
2017-07-21T03:00:05.666Z,9.50
2017-07-21T03:02:33.129Z,8.57
2017-07-21T03:05:00.578Z,8.30
2017-07-21T03:07:28.129Z,8.27
2017-07-21T03:09:55.607Z,8.77
2017-07-21T03:12:23.834Z,8.03
2017-07-21T03:14:51.303Z,8.63
2017-07-21T03:17:18.766Z,7.60
2017-07-21T03:19:46.335Z,8.10
2017-07-21T03:22:13.809Z,6.70
2017-07-21T03:24:41.253Z,7.70
2017-07-21T03:27:08.714Z,9.67
2017-07-21T03:29:36.182Z,7.63
2017-07-21T03:32:04.407Z,7.30
2017-07-21T03:34:31.898Z,8.00
2017-07-21T03:36:59.352Z,7.50
2017-07-21T03:39:26.814Z,7.37
2017-07-21T03:41:54.262Z,7.43
2017-07-21T03:44:21.722Z,7.30
2017-07-21T03:46:49.277Z,7.80
2017-07-21T03:49:16.829Z,8.67
2017-07-21T03:51:44.394Z,9.47
2017-07-21T03:54:11.859Z,7.77
2017-07-21T03:56:39.313Z,7.57
2017-07-21T03:59:06.774Z,8.60
2017-07-21T04:01:34.235Z,13.53
2017-07-21T04:04:02.466Z,14.80
2017-07-21T04:06:29.923Z,14.43
2017-07-21T04:08:57.386Z,10.97
2017-07-21T04:11:24.841Z,12.10
2017-07-21T04:13:52.336Z,12.47
2017-07-21T04:16:19.785Z,12.43
2017-07-21T04:18:47.246Z,13.50
2017-07-21T04:21:15.512Z,13.50
2017-07-21T04:23:43.061Z,11.90
2017-07-21T04:26:10.534Z,11.10
2017-07-21T04:28:42.148Z,10.10
2017-07-21T04:31:09.632Z,8.43
2017-07-21T04:33:37.190Z,7.20
2017-07-21T04:36:04.649Z,7.93
2017-07-21T04:38:32.101Z,7.17
2017-07-21T04:40:59.565Z,6.20
2017-07-21T04:43:27.010Z,5.77
2017-07-21T04:45:54.472Z,5.30
2017-07-21T04:48:22.022Z,6.80
2017-07-21T04:50:49.594Z,5.40
2017-07-21T04:53:17.047Z,5.90
2017-07-21T04:55:44.510Z,5.63
2017-07-21T04:58:12.059Z,5.83
2017-07-21T05:00:39.521Z,4.37
2017-07-21T05:03:06.975Z,5.77
2017-07-21T05:05:34.527Z,5.80
2017-07-21T05:08:01.987Z,5.10
2017-07-21T05:10:29.438Z,7.40
2017-07-21T05:12:56.899Z,6.37
2017-07-21T05:15:24.354Z,7.13
2017-07-21T05:17:51.913Z,7.80
2017-07-21T05:20:19.466Z,6.50
2017-07-21T05:22:46.932Z,6.17
2017-07-21T05:25:14.377Z,4.60
2017-07-21T05:27:41.833Z,3.70
2017-07-21T05:30:09.286Z,4.07
2017-07-21T05:32:36.741Z,3.50
2017-07-21T05:35:04.196Z,2.90
2017-07-21T05:37:31.663Z,2.77
2017-07-21T05:39:59.099Z,2.20
2017-07-21T05:42:26.581Z,3.00
2017-07-21T05:44:54.030Z,3.33
2017-07-21T05:47:21.596Z,3.03
2017-07-21T05:49:49.158Z,3.10
2017-07-21T05:52:16.615Z,3.20
2017-07-21T05:54:44.066Z,2.80
2017-07-21T05:57:11.514Z,3.13
2017-07-21T05:59:38.974Z,2.90
2017-07-21T06:02:06.538Z,2.57
2017-07-21T06:04:33.982Z,3.73
2017-07-21T06:07:01.425Z,2.97
2017-07-21T06:09:28.886Z,3.40
2017-07-21T06:11:56.330Z,2.80
2017-07-21T06:14:23.817Z,3.07
2017-07-21T06:16:51.385Z,2.67
2017-07-21T06:19:19.653Z,3.00
2017-07-21T06:21:47.111Z,3.23
2017-07-21T06:24:14.570Z,3.93
2017-07-21T06:26:42.026Z,3.47
2017-07-21T06:29:09.471Z,4.00
2017-07-21T06:31:36.931Z,4.67
2017-07-21T06:34:04.383Z,3.73
2017-07-21T06:36:31.941Z,3.37
2017-07-21T06:38:59.386Z,3.40
2017-07-21T06:41:26.825Z,4.10
2017-07-21T06:43:54.277Z,3.50
2017-07-21T06:46:21.739Z,3.70
2017-07-21T06:48:49.194Z,3.20
2017-07-21T06:51:16.678Z,2.23
2017-07-21T06:53:44.234Z,2.80
2017-07-21T06:56:11.681Z,2.90
2017-07-21T06:58:39.244Z,2.90
2017-07-21T07:01:06.689Z,3.00
2017-07-21T07:03:34.139Z,3.50
2017-07-21T07:06:01.594Z,2.80
2017-07-21T07:08:29.073Z,3.17
2017-07-21T07:10:56.533Z,2.80
2017-07-21T07:13:23.982Z,2.97
2017-07-21T07:15:51.428Z,2.90
2017-07-21T07:18:18.900Z,2.00
2017-07-21T07:20:46.352Z,3.00
2017-07-21T07:23:13.797Z,3.10
2017-07-21T07:25:41.261Z,2.97
2017-07-21T07:28:08.721Z,2.47
2017-07-21T07:30:36.170Z,3.00
2017-07-21T07:33:03.637Z,2.67
2017-07-21T07:35:31.088Z,2.60
2017-07-21T07:37:58.536Z,2.07
2017-07-21T07:40:25.978Z,2.40
2017-07-21T07:42:53.437Z,2.83
2017-07-21T07:45:20.884Z,2.30
2017-07-21T07:47:48.386Z,2.23
2017-07-21T07:50:15.842Z,2.83
2017-07-21T07:52:43.305Z,3.03
2017-07-21T07:55:10.851Z,3.07
2017-07-21T07:57:38.297Z,2.33
2017-07-21T08:00:05.753Z,2.30
2017-07-21T08:02:33.202Z,2.47
2017-07-21T08:05:00.661Z,2.07
2017-07-21T08:07:28.105Z,1.80
2017-07-21T08:09:55.594Z,2.30
2017-07-21T08:12:23.046Z,2.27
2017-07-21T08:14:50.505Z,2.33
2017-07-21T08:17:17.959Z,2.83
2017-07-21T08:19:45.413Z,2.60
2017-07-21T08:22:12.878Z,2.50
2017-07-21T08:24:40.336Z,2.27
2017-07-21T08:27:07.796Z,2.40
2017-07-21T08:29:35.346Z,2.53
2017-07-21T08:32:02.810Z,2.60
2017-07-21T08:34:30.256Z,2.80
2017-07-21T08:36:57.727Z,3.30
2017-07-21T08:39:25.182Z,2.00
2017-07-21T08:41:53.411Z,2.67
2017-07-21T08:44:20.873Z,2.77
2017-07-21T08:46:48.362Z,2.20
2017-07-21T08:49:15.811Z,2.30
2017-07-21T08:51:43.261Z,2.23
2017-07-21T08:54:10.708Z,2.10
2017-07-21T08:56:38.184Z,2.47
2017-07-21T08:59:05.745Z,2.00
2017-07-21T09:01:33.197Z,2.20
2017-07-21T09:04:00.662Z,2.40
2017-07-21T09:06:28.106Z,2.50
2017-07-21T09:08:55.558Z,2.17
2017-07-21T09:11:23.011Z,1.67
2017-07-21T09:13:50.570Z,2.50
2017-07-21T09:16:18.011Z,3.17
2017-07-21T09:18:45.479Z,1.83
2017-07-21T09:21:12.950Z,1.80
2017-07-21T09:23:40.417Z,1.67
2017-07-21T09:26:07.868Z,1.53
2017-07-21T09:28:35.421Z,1.90
2017-07-21T09:31:02.873Z,1.63
2017-07-21T09:33:30.322Z,2.07
2017-07-21T09:35:57.798Z,2.00
2017-07-21T09:38:25.246Z,2.10
2017-07-21T09:40:52.689Z,1.50
2017-07-21T09:43:20.134Z,1.57
2017-07-21T09:45:47.588Z,1.40
2017-07-21T09:48:15.057Z,1.60
2017-07-21T09:50:42.621Z,1.80
2017-07-21T09:53:10.066Z,1.80
2017-07-21T09:55:37.518Z,1.93
2017-07-21T09:58:04.986Z,1.67
2017-07-21T10:00:32.441Z,1.60
2017-07-21T10:02:59.910Z,1.70
2017-07-21T10:05:27.457Z,1.40
2017-07-21T10:07:54.909Z,1.43
2017-07-21T10:10:22.361Z,1.40
2017-07-21T10:12:49.813Z,1.40
2017-07-21T10:15:17.269Z,2.20
2017-07-21T10:17:44.737Z,2.00
2017-07-21T10:20:12.181Z,1.77
2017-07-21T10:22:39.641Z,2.57
2017-07-21T10:25:07.103Z,2.97
2017-07-21T10:27:34.551Z,2.57
2017-07-21T10:30:02.006Z,2.20
2017-07-21T10:32:29.456Z,2.60
2017-07-21T10:34:56.929Z,2.67
2017-07-21T10:37:24.382Z,2.57
2017-07-21T10:39:51.955Z,3.37
2017-07-21T10:42:19.400Z,4.20
2017-07-21T10:44:46.869Z,3.67
2017-07-21T10:47:14.321Z,2.30
2017-07-21T10:49:41.782Z,3.20
2017-07-21T10:52:09.245Z,2.60
2017-07-21T10:54:36.698Z,2.47
2017-07-21T10:57:04.155Z,2.33
2017-07-21T10:59:31.609Z,2.20
2017-07-21T11:01:59.067Z,2.17
2017-07-21T11:04:26.521Z,2.30
2017-07-21T11:06:54.061Z,2.93
2017-07-21T11:09:21.505Z,2.27
2017-07-21T11:11:48.992Z,2.40
2017-07-21T11:14:17.212Z,2.60
2017-07-21T11:16:44.656Z,2.90
2017-07-21T11:19:12.106Z,2.30
2017-07-21T11:21:39.563Z,2.53
2017-07-21T11:24:07.785Z,2.50
2017-07-21T11:26:35.229Z,2.97
2017-07-21T11:29:02.697Z,3.20
2017-07-21T11:31:30.143Z,2.57
2017-07-21T11:33:57.593Z,3.00
2017-07-21T11:36:25.047Z,3.30
2017-07-21T11:38:52.540Z,2.30
2017-07-21T11:41:20.094Z,3.67
2017-07-21T11:43:47.541Z,2.43
2017-07-21T11:46:14.999Z,2.93
2017-07-21T11:48:42.443Z,3.53
2017-07-21T11:51:09.925Z,2.60
2017-07-21T11:53:37.386Z,2.40
2017-07-21T11:56:04.857Z,3.63
2017-07-21T11:58:33.074Z,2.40
2017-07-21T12:01:00.517Z,2.53
2017-07-21T12:03:27.974Z,3.20
2017-07-21T12:05:55.422Z,2.80
2017-07-21T12:08:22.878Z,3.20
2017-07-21T12:10:50.321Z,2.47
2017-07-21T12:13:18.565Z,2.10
2017-07-21T12:15:46.015Z,2.40
2017-07-21T12:18:13.484Z,2.90
2017-07-21T12:20:40.925Z,2.33
2017-07-21T12:23:08.382Z,3.03
2017-07-21T12:25:35.836Z,2.77
2017-07-21T12:28:03.280Z,2.93
2017-07-21T12:30:30.742Z,2.50
2017-07-21T12:32:58.189Z,2.70
2017-07-21T12:35:25.644Z,2.60
2017-07-21T12:37:53.091Z,3.13
2017-07-21T12:40:20.548Z,2.50
2017-07-21T12:42:47.991Z,3.30
2017-07-21T12:45:15.493Z,3.67
2017-07-21T12:47:42.942Z,2.47
2017-07-21T12:50:10.385Z,3.20
2017-07-21T12:52:37.841Z,2.80
2017-07-21T12:55:05.322Z,2.60
2017-07-21T12:57:32.782Z,3.27
2017-07-21T13:00:00.229Z,2.50
2017-07-21T13:02:27.681Z,2.70
2017-07-21T13:04:55.123Z,2.70
2017-07-21T13:07:22.576Z,3.40
2017-07-21T13:09:50.026Z,2.70
2017-07-21T13:12:17.495Z,2.40
2017-07-21T13:14:44.942Z,3.27
2017-07-21T13:17:12.521Z,2.47
2017-07-21T13:19:39.964Z,2.40
2017-07-21T13:22:07.405Z,2.30
2017-07-21T13:24:34.888Z,2.80
2017-07-21T13:27:02.454Z,2.40
2017-07-21T13:29:30.025Z,3.40
2017-07-21T13:31:57.569Z,3.40
2017-07-21T13:34:25.118Z,2.43
2017-07-21T13:36:52.583Z,2.77
2017-07-21T13:39:20.040Z,2.40
2017-07-21T13:41:47.487Z,2.47
2017-07-21T13:44:14.945Z,3.00
2017-07-21T13:46:42.389Z,3.27
2017-07-21T13:49:09.842Z,2.60
2017-07-21T13:51:37.322Z,2.80
2017-07-21T13:54:04.769Z,2.40
2017-07-21T13:56:32.332Z,2.40
2017-07-21T13:58:59.780Z,3.13
2017-07-21T14:01:27.241Z,3.00
2017-07-21T14:03:54.697Z,2.53
2017-07-21T14:06:22.159Z,2.27
2017-07-21T14:08:49.602Z,3.17
2017-07-21T14:11:17.174Z,3.30
2017-07-21T14:13:44.625Z,2.60
2017-07-21T14:16:12.084Z,2.50
2017-07-21T14:18:39.637Z,3.37
2017-07-21T14:21:07.092Z,2.70
2017-07-21T14:23:34.550Z,2.50
2017-07-21T14:26:02.004Z,2.90
2017-07-21T14:28:29.454Z,3.20
2017-07-21T14:30:56.905Z,2.73
2017-07-21T14:33:24.377Z,2.40
2017-07-21T14:35:51.831Z,2.70
2017-07-21T14:38:19.293Z,3.10
2017-07-21T14:40:46.733Z,2.80
2017-07-21T14:43:14.203Z,2.33
2017-07-21T14:45:41.661Z,2.57
2017-07-21T14:48:09.106Z,2.53
2017-07-21T14:50:36.557Z,2.67
2017-07-21T14:53:04.026Z,2.30
2017-07-21T14:55:31.485Z,2.63
2017-07-21T14:57:58.934Z,2.30
2017-07-21T15:00:26.406Z,2.37
2017-07-21T15:02:55.361Z,2.77
2017-07-21T15:05:22.811Z,2.70
2017-07-21T15:07:50.371Z,2.30
2017-07-21T15:10:17.809Z,2.73
2017-07-21T15:12:45.326Z,3.43
2017-07-21T15:15:12.768Z,2.63
2017-07-21T15:17:40.324Z,2.80
2017-07-21T15:20:07.786Z,2.50
2017-07-21T15:22:35.352Z,2.60
2017-07-21T15:25:02.799Z,2.93
2017-07-21T15:27:30.353Z,3.03
2017-07-21T15:29:57.810Z,2.60
2017-07-21T15:32:25.273Z,2.57
2017-07-21T15:34:52.729Z,2.60
2017-07-21T15:37:20.179Z,2.60
2017-07-21T15:39:47.741Z,2.90
2017-07-21T15:42:15.189Z,2.70
2017-07-21T15:44:42.646Z,3.30
2017-07-21T15:47:10.095Z,2.83
2017-07-21T15:49:37.554Z,3.43
2017-07-21T15:52:05.022Z,2.90
2017-07-21T15:54:34.820Z,2.70
2017-07-21T15:57:02.269Z,3.53
2017-07-21T15:59:29.749Z,3.00
2017-07-21T16:01:57.223Z,3.03
2017-07-21T16:04:24.665Z,2.63
2017-07-21T16:06:52.132Z,2.93
2017-07-21T16:09:19.584Z,2.30
2017-07-21T16:11:47.033Z,3.23
2017-07-21T16:14:14.569Z,2.50
2017-07-21T16:16:42.065Z,2.60
2017-07-21T16:19:10.345Z,2.70
2017-07-21T16:21:38.610Z,2.70
2017-07-21T16:24:06.919Z,2.80
2017-07-21T16:26:34.443Z,2.93
2017-07-21T16:29:01.894Z,2.63
2017-07-21T16:31:29.342Z,2.87
2017-07-21T16:33:56.792Z,2.70
2017-07-21T16:36:24.241Z,2.90
2017-07-21T16:38:51.693Z,2.40
2017-07-21T16:41:19.137Z,2.83
2017-07-21T16:43:46.588Z,2.97
2017-07-21T16:46:14.050Z,3.30
2017-07-21T16:48:41.569Z,3.20
2017-07-21T16:51:09.841Z,2.70
2017-07-21T16:53:37.365Z,2.73
2017-07-21T16:56:06.029Z,3.30
2017-07-21T16:58:33.562Z,2.87
2017-07-21T17:01:01.618Z,3.43
2017-07-21T17:03:29.968Z,3.87
2017-07-21T17:05:57.750Z,3.90
2017-07-21T17:08:27.371Z,2.77
2017-07-21T17:10:57.410Z,3.60
2017-07-21T17:13:26.180Z,3.47
2017-07-21T17:15:53.818Z,3.30
2017-07-21T17:18:22.176Z,3.07
2017-07-21T17:20:49.717Z,3.23
2017-07-21T17:23:17.178Z,6.07
2017-07-21T17:25:44.642Z,3.33
2017-07-21T17:28:12.090Z,2.60
2017-07-21T17:30:39.705Z,2.90
2017-07-21T17:33:07.136Z,3.00
2017-07-21T17:35:35.384Z,3.30
2017-07-21T17:38:02.978Z,2.80
2017-07-21T17:40:31.218Z,2.80
2017-07-21T17:42:58.728Z,3.60
2017-07-21T17:45:26.277Z,3.00
2017-07-21T17:47:54.501Z,3.70
2017-07-21T17:50:21.966Z,3.40
2017-07-21T17:52:49.441Z,3.37
2017-07-21T17:55:17.731Z,3.33
2017-07-21T17:57:45.982Z,2.80
2017-07-21T18:00:13.478Z,3.70
2017-07-21T18:02:40.929Z,3.07
2017-07-21T18:05:09.293Z,3.27
2017-07-21T18:07:36.753Z,3.17
2017-07-21T18:10:04.981Z,3.13
2017-07-21T18:12:32.475Z,2.83
2017-07-21T18:15:00.696Z,3.17
2017-07-21T18:17:28.155Z,2.57
2017-07-21T18:19:55.614Z,3.03
2017-07-21T18:22:23.095Z,2.43
2017-07-21T18:24:50.566Z,3.00
2017-07-21T18:27:18.015Z,3.30
2017-07-21T18:29:45.462Z,3.70
2017-07-21T18:32:12.910Z,3.07
2017-07-21T18:34:40.394Z,3.47
2017-07-21T18:37:08.612Z,3.20
2017-07-21T18:39:36.074Z,3.30
2017-07-21T18:42:03.950Z,3.07
2017-07-21T18:44:31.414Z,3.47
2017-07-21T18:46:58.905Z,3.50
2017-07-21T18:49:26.388Z,3.70
2017-07-21T18:51:53.855Z,3.90
2017-07-21T18:54:21.297Z,4.07
2017-07-21T18:56:48.826Z,3.20
2017-07-21T18:59:17.087Z,3.63
2017-07-21T19:01:44.559Z,3.70
2017-07-21T19:04:11.998Z,3.17
2017-07-21T19:09:13.342Z,3.97
2017-07-21T19:11:40.804Z,3.50
2017-07-21T19:14:08.243Z,3.40
2017-07-21T19:16:35.693Z,3.97
2017-07-21T19:19:03.160Z,3.37
2017-07-21T19:21:30.605Z,3.50
2017-07-21T19:23:58.060Z,3.43
2017-07-21T19:26:25.527Z,3.67
2017-07-21T19:28:52.994Z,4.07
2017-07-21T19:31:20.450Z,4.97
2017-07-21T19:33:47.911Z,4.30
2017-07-21T19:36:15.357Z,4.07
2017-07-21T19:38:42.829Z,4.00
2017-07-21T19:41:10.284Z,3.97
2017-07-21T19:43:39.733Z,3.10
2017-07-21T19:46:07.194Z,2.90
2017-07-21T19:48:34.705Z,3.97
2017-07-21T19:51:02.166Z,5.63
2017-07-21T19:53:31.613Z,4.90
2017-07-21T19:55:59.116Z,6.80
2017-07-21T19:58:26.564Z,6.40
2017-07-21T20:00:54.032Z,5.50
2017-07-21T20:03:21.482Z,5.50
2017-07-21T20:05:48.937Z,6.47
2017-07-21T20:08:16.385Z,9.20
2017-07-21T20:10:43.853Z,8.80
2017-07-21T20:13:11.302Z,6.30
2017-07-21T20:15:38.774Z,6.60
2017-07-21T20:18:06.237Z,5.00
2017-07-21T20:20:33.781Z,5.63
2017-07-21T20:23:01.237Z,4.90
2017-07-21T20:25:28.691Z,5.70
2017-07-21T20:27:56.259Z,7.53
2017-07-21T20:30:23.739Z,6.20
2017-07-21T20:32:52.113Z,8.80
2017-07-21T20:35:20.370Z,9.10
2017-07-21T20:37:47.822Z,6.90
2017-07-21T20:40:15.281Z,7.87
2017-07-21T20:42:42.733Z,7.07
2017-07-21T20:45:10.198Z,7.20
2017-07-21T20:47:37.649Z,5.97
2017-07-21T20:50:06.125Z,5.43
2017-07-21T20:52:33.571Z,3.67
2017-07-21T20:55:01.032Z,4.70
2017-07-21T20:57:28.785Z,4.87
2017-07-21T20:59:56.256Z,3.07
2017-07-21T21:02:23.710Z,4.20
2017-07-21T21:04:51.173Z,4.73
2017-07-21T21:07:18.625Z,4.20
2017-07-21T21:09:46.102Z,3.23
2017-07-21T21:12:14.347Z,3.33
2017-07-21T21:14:41.797Z,3.27
2017-07-21T21:17:09.245Z,2.87
2017-07-21T21:19:36.733Z,3.23
2017-07-21T21:22:04.205Z,2.87
2017-07-21T21:24:33.562Z,3.40
2017-07-21T21:27:01.045Z,3.83
2017-07-21T21:29:28.516Z,3.53
2017-07-21T21:31:55.968Z,4.00
2017-07-21T21:34:23.387Z,3.70
2017-07-21T21:36:50.911Z,3.67
2017-07-21T21:39:18.368Z,3.70
2017-07-21T21:41:45.827Z,4.60
2017-07-21T21:44:13.334Z,3.27
2017-07-21T21:46:40.785Z,3.00
2017-07-21T21:49:08.337Z,3.30
2017-07-21T21:51:35.785Z,3.10
2017-07-21T21:54:03.238Z,3.87
2017-07-21T21:56:30.691Z,4.10
2017-07-21T21:58:58.291Z,4.23
2017-07-21T22:02:39.346Z,4.20
2017-07-21T22:05:06.809Z,3.53
2017-07-21T22:07:34.375Z,3.10
2017-07-21T22:10:01.842Z,2.53
2017-07-21T22:12:29.309Z,3.40
2017-07-21T22:14:56.749Z,4.07
2017-07-21T22:17:24.207Z,4.57
2017-07-21T22:19:51.662Z,4.10
2017-07-21T22:22:19.122Z,4.47
2017-07-21T22:24:46.578Z,3.90
2017-07-21T22:27:14.037Z,3.63
2017-07-21T22:29:41.577Z,3.00
2017-07-21T22:32:09.036Z,4.13
2017-07-21T22:34:36.598Z,3.57
2017-07-21T22:37:04.158Z,4.27
2017-07-21T22:39:31.721Z,5.33
2017-07-21T22:41:59.173Z,5.90
2017-07-21T22:44:26.724Z,5.40
2017-07-21T22:46:54.175Z,5.53
2017-07-21T22:49:21.638Z,4.83
2017-07-21T22:51:49.201Z,4.40
2017-07-21T22:54:16.773Z,5.30
2017-07-21T22:56:44.323Z,5.70
2017-07-21T22:59:11.786Z,4.67
2017-07-21T23:01:39.229Z,4.63
2017-07-21T23:04:06.710Z,4.07
2017-07-21T23:06:34.926Z,4.40
2017-07-21T23:09:02.384Z,4.53
2017-07-21T23:11:29.870Z,4.70
2017-07-21T23:13:57.430Z,5.20
2017-07-21T23:16:24.887Z,5.30
2017-07-21T23:18:52.353Z,5.00
2017-07-21T23:21:19.814Z,5.53
2017-07-21T23:23:48.079Z,5.77
2017-07-21T23:26:15.650Z,6.40
2017-07-21T23:28:43.891Z,5.80
2017-07-21T23:31:11.339Z,5.80
2017-07-21T23:33:38.825Z,6.17
2017-07-21T23:36:06.287Z,7.17
2017-07-21T23:38:33.762Z,6.60
2017-07-21T23:41:01.976Z,6.03
2017-07-21T23:43:29.435Z,7.20
2017-07-21T23:45:56.891Z,6.90
2017-07-21T23:48:24.346Z,5.93
2017-07-21T23:50:51.815Z,5.23
2017-07-21T23:53:19.269Z,4.80
2017-07-21T23:55:46.726Z,5.07
2017-07-21T23:58:14.209Z,5.10
